首页
METAR-TAF:

METAR-TAF

机场 :

博博迪烏拉索機場

博博迪乌拉索, 布吉納法索

纬度: 11-10N, 经度: 004-19W, 海拔: 460米

当前天气观测

该预报发布于26分钟前的16:00 UTC
风速9节,风向
温度 30°C
湿度 66%
气压 1012 hPa
能见度10公里或以上
散云层高于1600英尺
散云层高于2600英尺
少量云层高于3300英尺, 积雨云.

METAR: DFOO 161600Z 17009KT 9999 SCT016 SCT026 FEW033CB 30/23 Q1012

时间: 16:26 (16:26 UTC)

预报

该预报发布于5小时和26分钟前的11:00 UTC
预报有效从16日的 12点(UTC)到 17日的 12点(UTC)
风速8节,风向南转西南
能见度10公里或以上
散云层高于1600英尺
短暂存在
从 16日的 15点(UTC)到 16日的 24点(UTC)
风速20节,风向多变
能見度: 4000
散云层高于1600英尺
散云层高于3000英尺, 积雨云.
雷暴, 雨

TAF: DFOO 161100Z 1612/1712 20008KT 9999 SCT016 TEMPO 1615/1624 VRB20KT 4000 TSRA SCT016 SCT030CB

超过4000个机场的气象观测和天气预报(METAR&TAF报告)。

可查询的气象台以黄色和红色小点在地图上表示。

将鼠标移到小点上方,可查看气象台名称。

然后点击查看天气观测和预报。

如需切换地图:点击带黑十字的绿色按钮放大地图;点击带横线的绿色按钮缩小地图;或者点击绿色箭头查看邻近地区的地图。


METAR-TAF: